sensor_id;sensor_type;location;lat;lon;timestamp;P1;durP1;ratioP1;P2;durP2;ratioP2
2061;SDS011;11070;51.336;12.340;2024-03-02T00:01:07;60.17;;;37.63;;
2061;SDS011;11070;51.336;12.340;2024-03-02T00:03:36;61.33;;;38.13;;
2061;SDS011;11070;51.336;12.340;2024-03-02T00:06:03;61.00;;;38.28;;
2061;SDS011;11070;51.336;12.340;2024-03-02T00:08:29;66.05;;;36.75;;
2061;SDS011;11070;51.336;12.340;2024-03-02T00:10:58;65.20;;;38.38;;
2061;SDS011;11070;51.336;12.340;2024-03-02T00:13:25;60.58;;;35.92;;
2061;SDS011;11070;51.336;12.340;2024-03-02T00:15:55;64.30;;;38.00;;
2061;SDS011;11070;51.336;12.340;2024-03-02T00:18:30;59.58;;;37.90;;
2061;SDS011;11070;51.336;12.340;2024-03-02T00:20:57;60.58;;;38.50;;
2061;SDS011;11070;51.336;12.340;2024-03-02T00:23:24;60.20;;;37.55;;
2061;SDS011;11070;51.336;12.340;2024-03-02T00:25:54;59.00;;;36.55;;
2061;SDS011;11070;51.336;12.340;2024-03-02T00:28:23;59.35;;;36.83;;
2061;SDS011;11070;51.336;12.340;2024-03-02T00:33:27;63.15;;;38.15;;
2061;SDS011;11070;51.336;12.340;2024-03-02T00:35:59;59.83;;;38.40;;
2061;SDS011;11070;51.336;12.340;2024-03-02T00:38:26;61.65;;;36.92;;
2061;SDS011;11070;51.336;12.340;2024-03-02T00:40:52;61.92;;;36.22;;
2061;SDS011;11070;51.336;12.340;2024-03-02T00:43:35;61.15;;;37.22;;
2061;SDS011;11070;51.336;12.340;2024-03-02T00:46:19;57.63;;;36.72;;
2061;SDS011;11070;51.336;12.340;2024-03-02T00:48:47;59.17;;;37.85;;
2061;SDS011;11070;51.336;12.340;2024-03-02T00:51:18;55.40;;;34.30;;
2061;SDS011;11070;51.336;12.340;2024-03-02T00:53:43;53.90;;;34.90;;
2061;SDS011;11070;51.336;12.340;2024-03-02T00:56:09;55.97;;;34.73;;
2061;SDS011;11070;51.336;12.340;2024-03-02T00:58:36;60.08;;;36.28;;
2061;SDS011;11070;51.336;12.340;2024-03-02T01:01:03;60.28;;;37.50;;
2061;SDS011;11070;51.336;12.340;2024-03-02T01:03:29;61.30;;;36.40;;
2061;SDS011;11070;51.336;12.340;2024-03-02T01:05:56;54.33;;;35.67;;
2061;SDS011;11070;51.336;12.340;2024-03-02T01:08:21;53.33;;;35.30;;
2061;SDS011;11070;51.336;12.340;2024-03-02T01:10:47;55.67;;;35.80;;
2061;SDS011;11070;51.336;12.340;2024-03-02T01:13:13;56.83;;;36.20;;
2061;SDS011;11070;51.336;12.340;2024-03-02T01:15:38;58.23;;;35.83;;
2061;SDS011;11070;51.336;12.340;2024-03-02T01:18:04;56.30;;;34.70;;
2061;SDS011;11070;51.336;12.340;2024-03-02T01:20:30;62.90;;;38.20;;
2061;SDS011;11070;51.336;12.340;2024-03-02T01:22:55;55.03;;;35.70;;
2061;SDS011;11070;51.336;12.340;2024-03-02T01:25:21;55.43;;;35.70;;
2061;SDS011;11070;51.336;12.340;2024-03-02T01:27:47;60.73;;;37.70;;
2061;SDS011;11070;51.336;12.340;2024-03-02T01:30:12;59.27;;;36.83;;
2061;SDS011;11070;51.336;12.340;2024-03-02T01:32:38;59.03;;;36.90;;
2061;SDS011;11070;51.336;12.340;2024-03-02T01:35:04;63.77;;;36.60;;
2061;SDS011;11070;51.336;12.340;2024-03-02T01:37:30;58.97;;;36.50;;
2061;SDS011;11070;51.336;12.340;2024-03-02T01:39:56;60.30;;;36.83;;
2061;SDS011;11070;51.336;12.340;2024-03-02T01:42:22;58.67;;;35.87;;
2061;SDS011;11070;51.336;12.340;2024-03-02T01:44:47;56.43;;;36.60;;
2061;SDS011;11070;51.336;12.340;2024-03-02T01:47:13;54.50;;;35.20;;
2061;SDS011;11070;51.336;12.340;2024-03-02T01:49:39;56.07;;;36.10;;
2061;SDS011;11070;51.336;12.340;2024-03-02T01:52:06;59.92;;;34.78;;
2061;SDS011;11070;51.336;12.340;2024-03-02T01:54:32;53.55;;;34.10;;
2061;SDS011;11070;51.336;12.340;2024-03-02T01:56:58;55.57;;;34.80;;
2061;SDS011;11070;51.336;12.340;2024-03-02T01:59:24;53.20;;;33.28;;
2061;SDS011;11070;51.336;12.340;2024-03-02T02:01:50;56.20;;;35.25;;
2061;SDS011;11070;51.336;12.340;2024-03-02T02:04:16;50.90;;;32.97;;
2061;SDS011;11070;51.336;12.340;2024-03-02T02:06:43;57.27;;;34.10;;
2061;SDS011;11070;51.336;12.340;2024-03-02T02:09:09;56.20;;;33.33;;
2061;SDS011;11070;51.336;12.340;2024-03-02T02:11:35;53.60;;;32.97;;
2061;SDS011;11070;51.336;12.340;2024-03-02T02:14:01;52.70;;;33.07;;
2061;SDS011;11070;51.336;12.340;2024-03-02T02:16:26;50.30;;;32.70;;
2061;SDS011;11070;51.336;12.340;2024-03-02T02:18:52;47.80;;;31.40;;
2061;SDS011;11070;51.336;12.340;2024-03-02T02:21:22;43.93;;;27.87;;
2061;SDS011;11070;51.336;12.340;2024-03-02T02:23:48;48.25;;;31.10;;
2061;SDS011;11070;51.336;12.340;2024-03-02T02:26:13;50.80;;;29.60;;
2061;SDS011;11070;51.336;12.340;2024-03-02T02:28:39;48.43;;;30.60;;
2061;SDS011;11070;51.336;12.340;2024-03-02T02:31:11;47.28;;;29.15;;
2061;SDS011;11070;51.336;12.340;2024-03-02T02:33:39;47.22;;;28.40;;
2061;SDS011;11070;51.336;12.340;2024-03-02T02:36:05;43.45;;;26.52;;
2061;SDS011;11070;51.336;12.340;2024-03-02T02:38:31;48.40;;;28.57;;
2061;SDS011;11070;51.336;12.340;2024-03-02T02:41:01;44.90;;;28.27;;
2061;SDS011;11070;51.336;12.340;2024-03-02T02:43:26;45.37;;;27.93;;
2061;SDS011;11070;51.336;12.340;2024-03-02T02:45:52;44.03;;;27.67;;
2061;SDS011;11070;51.336;12.340;2024-03-02T02:48:17;45.63;;;27.53;;
2061;SDS011;11070;51.336;12.340;2024-03-02T02:50:43;42.03;;;27.60;;
2061;SDS011;11070;51.336;12.340;2024-03-02T02:53:09;44.40;;;28.30;;
2061;SDS011;11070;51.336;12.340;2024-03-02T02:55:35;46.17;;;27.80;;
2061;SDS011;11070;51.336;12.340;2024-03-02T02:58:05;40.42;;;26.50;;
2061;SDS011;11070;51.336;12.340;2024-03-02T03:00:31;37.83;;;25.08;;
2061;SDS011;11070;51.336;12.340;2024-03-02T03:02:57;43.10;;;26.10;;
2061;SDS011;11070;51.336;12.340;2024-03-02T03:05:22;42.67;;;26.73;;
2061;SDS011;11070;51.336;12.340;2024-03-02T03:07:48;43.13;;;27.37;;
2061;SDS011;11070;51.336;12.340;2024-03-02T03:10:15;42.17;;;26.02;;
2061;SDS011;11070;51.336;12.340;2024-03-02T03:12:41;38.15;;;26.10;;
2061;SDS011;11070;51.336;12.340;2024-03-02T03:15:08;41.88;;;26.10;;
2061;SDS011;11070;51.336;12.340;2024-03-02T03:17:35;42.83;;;26.48;;
2061;SDS011;11070;51.336;12.340;2024-03-02T03:20:02;36.40;;;24.15;;
2061;SDS011;11070;51.336;12.340;2024-03-02T03:22:29;39.38;;;24.52;;
2061;SDS011;11070;51.336;12.340;2024-03-02T03:24:56;38.83;;;23.77;;
2061;SDS011;11070;51.336;12.340;2024-03-02T03:27:22;43.20;;;26.13;;
2061;SDS011;11070;51.336;12.340;2024-03-02T03:29:51;37.92;;;25.20;;
2061;SDS011;11070;51.336;12.340;2024-03-02T03:32:17;42.40;;;26.60;;
2061;SDS011;11070;51.336;12.340;2024-03-02T03:34:43;38.00;;;23.83;;
2061;SDS011;11070;51.336;12.340;2024-03-02T03:37:08;36.90;;;23.93;;
2061;SDS011;11070;51.336;12.340;2024-03-02T03:39:34;42.53;;;25.38;;
2061;SDS011;11070;51.336;12.340;2024-03-02T03:42:04;36.28;;;22.75;;
2061;SDS011;11070;51.336;12.340;2024-03-02T03:44:30;38.10;;;24.48;;
2061;SDS011;11070;51.336;12.340;2024-03-02T03:46:56;37.43;;;24.43;;
2061;SDS011;11070;51.336;12.340;2024-03-02T03:49:22;39.90;;;23.67;;
2061;SDS011;11070;51.336;12.340;2024-03-02T03:51:47;40.60;;;24.83;;
2061;SDS011;11070;51.336;12.340;2024-03-02T03:54:13;33.77;;;22.30;;
2061;SDS011;11070;51.336;12.340;2024-03-02T03:56:39;35.27;;;22.80;;
2061;SDS011;11070;51.336;12.340;2024-03-02T03:59:04;32.70;;;22.00;;
2061;SDS011;11070;51.336;12.340;2024-03-02T04:01:30;35.43;;;21.90;;
2061;SDS011;11070;51.336;12.340;2024-03-02T04:03:56;33.13;;;23.23;;
2061;SDS011;11070;51.336;12.340;2024-03-02T04:06:23;35.08;;;22.67;;
2061;SDS011;11070;51.336;12.340;2024-03-02T04:08:48;32.90;;;22.43;;
2061;SDS011;11070;51.336;12.340;2024-03-02T04:11:14;41.90;;;23.70;;
2061;SDS011;11070;51.336;12.340;2024-03-02T04:13:40;33.93;;;21.37;;
2061;SDS011;11070;51.336;12.340;2024-03-02T04:16:05;36.20;;;23.30;;
2061;SDS011;11070;51.336;12.340;2024-03-02T04:18:31;36.70;;;22.50;;
2061;SDS011;11070;51.336;12.340;2024-03-02T04:20:57;33.77;;;21.77;;
2061;SDS011;11070;51.336;12.340;2024-03-02T04:23:26;32.97;;;21.63;;
2061;SDS011;11070;51.336;12.340;2024-03-02T04:25:52;34.83;;;22.35;;
2061;SDS011;11070;51.336;12.340;2024-03-02T04:28:18;36.40;;;23.10;;
2061;SDS011;11070;51.336;12.340;2024-03-02T04:30:43;33.30;;;21.70;;
2061;SDS011;11070;51.336;12.340;2024-03-02T04:33:09;35.97;;;22.97;;
2061;SDS011;11070;51.336;12.340;2024-03-02T04:35:35;34.70;;;22.13;;
2061;SDS011;11070;51.336;12.340;2024-03-02T04:38:04;33.45;;;21.55;;
2061;SDS011;11070;51.336;12.340;2024-03-02T04:40:29;36.20;;;22.90;;
2061;SDS011;11070;51.336;12.340;2024-03-02T04:42:55;34.63;;;21.63;;
2061;SDS011;11070;51.336;12.340;2024-03-02T04:45:21;35.43;;;22.87;;
2061;SDS011;11070;51.336;12.340;2024-03-02T04:47:46;33.10;;;22.63;;
2061;SDS011;11070;51.336;12.340;2024-03-02T04:50:12;35.27;;;22.07;;
2061;SDS011;11070;51.336;12.340;2024-03-02T04:52:38;36.70;;;22.63;;
2061;SDS011;11070;51.336;12.340;2024-03-02T04:55:04;37.70;;;22.98;;
2061;SDS011;11070;51.336;12.340;2024-03-02T04:57:54;36.97;;;23.75;;
2061;SDS011;11070;51.336;12.340;2024-03-02T05:00:21;37.30;;;23.55;;
2061;SDS011;11070;51.336;12.340;2024-03-02T05:02:46;39.30;;;24.03;;
2061;SDS011;11070;51.336;12.340;2024-03-02T05:05:12;39.57;;;22.23;;
2061;SDS011;11070;51.336;12.340;2024-03-02T05:07:40;31.80;;;21.20;;
2061;SDS011;11070;51.336;12.340;2024-03-02T05:10:07;34.70;;;22.80;;
2061;SDS011;11070;51.336;12.340;2024-03-02T05:12:34;36.20;;;23.55;;
2061;SDS011;11070;51.336;12.340;2024-03-02T05:15:11;40.05;;;23.95;;
2061;SDS011;11070;51.336;12.340;2024-03-02T05:17:40;39.95;;;23.80;;
2061;SDS011;11070;51.336;12.340;2024-03-02T05:20:10;35.30;;;22.95;;
2061;SDS011;11070;51.336;12.340;2024-03-02T05:22:36;36.47;;;23.13;;
2061;SDS011;11070;51.336;12.340;2024-03-02T05:25:02;33.85;;;22.10;;
2061;SDS011;11070;51.336;12.340;2024-03-02T05:27:29;34.38;;;23.02;;
2061;SDS011;11070;51.336;12.340;2024-03-02T05:29:55;35.50;;;23.17;;
2061;SDS011;11070;51.336;12.340;2024-03-02T05:32:21;42.03;;;24.73;;
2061;SDS011;11070;51.336;12.340;2024-03-02T05:34:46;38.30;;;24.37;;
2061;SDS011;11070;51.336;12.340;2024-03-02T05:37:12;39.50;;;24.63;;
2061;SDS011;11070;51.336;12.340;2024-03-02T05:39:38;38.93;;;23.10;;
2061;SDS011;11070;51.336;12.340;2024-03-02T05:42:03;37.50;;;23.50;;
2061;SDS011;11070;51.336;12.340;2024-03-02T05:44:29;38.20;;;23.47;;
2061;SDS011;11070;51.336;12.340;2024-03-02T05:46:55;40.43;;;23.93;;
2061;SDS011;11070;51.336;12.340;2024-03-02T05:49:21;43.73;;;26.27;;
2061;SDS011;11070;51.336;12.340;2024-03-02T05:51:47;40.73;;;24.43;;
2061;SDS011;11070;51.336;12.340;2024-03-02T05:54:13;39.03;;;24.20;;
2061;SDS011;11070;51.336;12.340;2024-03-02T05:56:38;38.93;;;24.33;;
2061;SDS011;11070;51.336;12.340;2024-03-02T05:59:04;36.50;;;23.57;;
2061;SDS011;11070;51.336;12.340;2024-03-02T06:01:39;37.55;;;24.02;;
2061;SDS011;11070;51.336;12.340;2024-03-02T06:04:05;39.00;;;24.48;;
2061;SDS011;11070;51.336;12.340;2024-03-02T06:06:31;45.25;;;25.65;;
2061;SDS011;11070;51.336;12.340;2024-03-02T06:08:59;39.70;;;23.73;;
2061;SDS011;11070;51.336;12.340;2024-03-02T06:11:32;40.15;;;23.73;;
2061;SDS011;11070;51.336;12.340;2024-03-02T06:14:04;38.92;;;24.90;;
2061;SDS011;11070;51.336;12.340;2024-03-02T06:16:31;40.67;;;23.88;;
2061;SDS011;11070;51.336;12.340;2024-03-02T06:18:57;38.80;;;24.02;;
2061;SDS011;11070;51.336;12.340;2024-03-02T06:21:23;37.27;;;24.67;;
2061;SDS011;11070;51.336;12.340;2024-03-02T06:23:49;40.83;;;25.40;;
2061;SDS011;11070;51.336;12.340;2024-03-02T06:26:15;35.27;;;22.93;;
2061;SDS011;11070;51.336;12.340;2024-03-02T06:28:41;44.50;;;24.90;;
2061;SDS011;11070;51.336;12.340;2024-03-02T06:31:06;39.87;;;24.10;;
2061;SDS011;11070;51.336;12.340;2024-03-02T06:33:32;41.77;;;25.03;;
2061;SDS011;11070;51.336;12.340;2024-03-02T06:35:58;41.17;;;24.33;;
2061;SDS011;11070;51.336;12.340;2024-03-02T06:38:23;38.10;;;24.50;;
2061;SDS011;11070;51.336;12.340;2024-03-02T06:40:49;42.77;;;25.60;;
2061;SDS011;11070;51.336;12.340;2024-03-02T06:43:14;39.47;;;24.43;;
2061;SDS011;11070;51.336;12.340;2024-03-02T06:45:40;42.33;;;26.23;;
2061;SDS011;11070;51.336;12.340;2024-03-02T06:48:06;40.60;;;25.53;;
2061;SDS011;11070;51.336;12.340;2024-03-02T06:50:32;42.22;;;25.70;;
2061;SDS011;11070;51.336;12.340;2024-03-02T06:52:58;40.90;;;26.03;;
2061;SDS011;11070;51.336;12.340;2024-03-02T06:55:24;45.10;;;26.80;;
2061;SDS011;11070;51.336;12.340;2024-03-02T06:57:50;43.80;;;26.73;;
2061;SDS011;11070;51.336;12.340;2024-03-02T07:00:17;45.83;;;26.90;;
2061;SDS011;11070;51.336;12.340;2024-03-02T07:02:43;42.88;;;26.63;;
2061;SDS011;11070;51.336;12.340;2024-03-02T07:05:09;40.90;;;26.52;;
2061;SDS011;11070;51.336;12.340;2024-03-02T07:07:36;43.95;;;24.92;;
2061;SDS011;11070;51.336;12.340;2024-03-02T07:10:05;39.55;;;25.58;;
2061;SDS011;11070;51.336;12.340;2024-03-02T07:12:32;42.55;;;25.17;;
2061;SDS011;11070;51.336;12.340;2024-03-02T07:14:58;41.67;;;26.10;;
2061;SDS011;11070;51.336;12.340;2024-03-02T07:17:43;41.85;;;24.52;;
2061;SDS011;11070;51.336;12.340;2024-03-02T07:20:09;42.73;;;26.60;;
2061;SDS011;11070;51.336;12.340;2024-03-02T07:22:37;44.00;;;26.48;;
2061;SDS011;11070;51.336;12.340;2024-03-02T07:25:03;40.33;;;24.40;;
2061;SDS011;11070;51.336;12.340;2024-03-02T07:27:29;40.25;;;26.38;;
2061;SDS011;11070;51.336;12.340;2024-03-02T07:29:56;40.80;;;24.55;;
2061;SDS011;11070;51.336;12.340;2024-03-02T07:32:22;38.87;;;25.10;;
2061;SDS011;11070;51.336;12.340;2024-03-02T07:34:47;43.03;;;25.10;;
2061;SDS011;11070;51.336;12.340;2024-03-02T07:37:13;38.00;;;23.80;;
2061;SDS011;11070;51.336;12.340;2024-03-02T07:39:39;37.30;;;24.63;;
2061;SDS011;11070;51.336;12.340;2024-03-02T07:42:04;40.63;;;23.57;;
2061;SDS011;11070;51.336;12.340;2024-03-02T07:44:31;37.05;;;24.08;;
2061;SDS011;11070;51.336;12.340;2024-03-02T07:46:56;38.87;;;23.43;;
2061;SDS011;11070;51.336;12.340;2024-03-02T07:49:22;39.60;;;23.90;;
2061;SDS011;11070;51.336;12.340;2024-03-02T07:51:48;37.23;;;23.90;;
2061;SDS011;11070;51.336;12.340;2024-03-02T07:54:14;40.10;;;24.30;;
2061;SDS011;11070;51.336;12.340;2024-03-02T07:56:39;44.50;;;24.20;;
2061;SDS011;11070;51.336;12.340;2024-03-02T07:59:05;38.63;;;22.47;;
2061;SDS011;11070;51.336;12.340;2024-03-02T08:01:32;38.30;;;23.75;;
2061;SDS011;11070;51.336;12.340;2024-03-02T08:03:58;38.53;;;24.92;;
2061;SDS011;11070;51.336;12.340;2024-03-02T08:06:28;37.00;;;23.40;;
2061;SDS011;11070;51.336;12.340;2024-03-02T08:08:55;39.88;;;24.40;;
2061;SDS011;11070;51.336;12.340;2024-03-02T08:11:25;41.33;;;23.83;;
2061;SDS011;11070;51.336;12.340;2024-03-02T08:13:56;40.90;;;24.88;;
2061;SDS011;11070;51.336;12.340;2024-03-02T08:16:22;40.27;;;24.13;;
2061;SDS011;11070;51.336;12.340;2024-03-02T08:18:51;36.58;;;24.25;;
2061;SDS011;11070;51.336;12.340;2024-03-02T08:21:17;35.90;;;23.85;;
2061;SDS011;11070;51.336;12.340;2024-03-02T08:23:43;36.57;;;24.37;;
2061;SDS011;11070;51.336;12.340;2024-03-02T08:26:09;35.00;;;22.70;;
2061;SDS011;11070;51.336;12.340;2024-03-02T08:28:36;36.88;;;22.92;;
2061;SDS011;11070;51.336;12.340;2024-03-02T08:31:03;35.13;;;24.08;;
2061;SDS011;11070;51.336;12.340;2024-03-02T08:33:29;39.35;;;24.00;;
2061;SDS011;11070;51.336;12.340;2024-03-02T08:35:55;38.60;;;25.07;;
2061;SDS011;11070;51.336;12.340;2024-03-02T08:38:21;36.83;;;23.98;;
2061;SDS011;11070;51.336;12.340;2024-03-02T08:40:46;37.37;;;23.37;;
2061;SDS011;11070;51.336;12.340;2024-03-02T08:43:12;35.30;;;23.23;;
2061;SDS011;11070;51.336;12.340;2024-03-02T08:45:39;36.25;;;23.27;;
2061;SDS011;11070;51.336;12.340;2024-03-02T08:48:06;38.47;;;24.05;;
2061;SDS011;11070;51.336;12.340;2024-03-02T08:50:35;36.30;;;24.02;;
2061;SDS011;11070;51.336;12.340;2024-03-02T08:53:01;38.67;;;23.73;;
2061;SDS011;11070;51.336;12.340;2024-03-02T08:55:28;37.95;;;23.92;;
2061;SDS011;11070;51.336;12.340;2024-03-02T08:57:54;37.07;;;24.07;;
2061;SDS011;11070;51.336;12.340;2024-03-02T09:00:20;39.63;;;23.88;;
2061;SDS011;11070;51.336;12.340;2024-03-02T09:02:46;36.70;;;23.80;;
2061;SDS011;11070;51.336;12.340;2024-03-02T09:05:12;38.17;;;23.50;;
2061;SDS011;11070;51.336;12.340;2024-03-02T09:07:38;36.87;;;23.87;;
2061;SDS011;11070;51.336;12.340;2024-03-02T09:10:06;36.60;;;24.33;;
2061;SDS011;11070;51.336;12.340;2024-03-02T09:12:33;35.33;;;23.92;;
2061;SDS011;11070;51.336;12.340;2024-03-02T09:15:02;34.40;;;23.17;;
2061;SDS011;11070;51.336;12.340;2024-03-02T09:17:28;38.00;;;24.08;;
2061;SDS011;11070;51.336;12.340;2024-03-02T09:19:54;38.85;;;24.05;;
2061;SDS011;11070;51.336;12.340;2024-03-02T09:22:20;35.93;;;23.33;;
2061;SDS011;11070;51.336;12.340;2024-03-02T09:24:46;35.13;;;23.73;;
2061;SDS011;11070;51.336;12.340;2024-03-02T09:27:12;33.50;;;22.50;;
2061;SDS011;11070;51.336;12.340;2024-03-02T09:29:37;38.50;;;24.23;;
2061;SDS011;11070;51.336;12.340;2024-03-02T09:32:04;36.70;;;22.63;;
2061;SDS011;11070;51.336;12.340;2024-03-02T09:34:30;34.47;;;22.63;;
2061;SDS011;11070;51.336;12.340;2024-03-02T09:36:56;35.47;;;23.20;;
2061;SDS011;11070;51.336;12.340;2024-03-02T09:39:22;34.85;;;23.27;;
2061;SDS011;11070;51.336;12.340;2024-03-02T09:41:48;36.33;;;23.67;;
2061;SDS011;11070;51.336;12.340;2024-03-02T09:44:14;33.03;;;21.90;;
2061;SDS011;11070;51.336;12.340;2024-03-02T09:46:39;36.77;;;24.43;;
2061;SDS011;11070;51.336;12.340;2024-03-02T09:49:05;36.33;;;21.37;;
2061;SDS011;11070;51.336;12.340;2024-03-02T09:51:31;37.00;;;22.87;;
2061;SDS011;11070;51.336;12.340;2024-03-02T09:53:57;34.03;;;23.65;;
2061;SDS011;11070;51.336;12.340;2024-03-02T09:56:26;35.05;;;22.67;;
2061;SDS011;11070;51.336;12.340;2024-03-02T09:58:51;31.73;;;21.10;;
2061;SDS011;11070;51.336;12.340;2024-03-02T10:01:17;34.83;;;22.47;;
2061;SDS011;11070;51.336;12.340;2024-03-02T10:03:44;30.03;;;20.20;;
2061;SDS011;11070;51.336;12.340;2024-03-02T10:06:21;33.08;;;21.75;;
2061;SDS011;11070;51.336;12.340;2024-03-02T10:08:48;31.85;;;20.55;;
2061;SDS011;11070;51.336;12.340;2024-03-02T10:11:29;29.38;;;19.55;;
2061;SDS011;11070;51.336;12.340;2024-03-02T10:14:11;32.72;;;20.85;;
2061;SDS011;11070;51.336;12.340;2024-03-02T10:16:38;26.50;;;18.95;;
2061;SDS011;11070;51.336;12.340;2024-03-02T10:21:45;26.48;;;18.50;;
2061;SDS011;11070;51.336;12.340;2024-03-02T10:24:12;27.27;;;18.83;;
2061;SDS011;11070;51.336;12.340;2024-03-02T10:26:38;25.90;;;18.40;;
2061;SDS011;11070;51.336;12.340;2024-03-02T10:29:04;21.50;;;16.48;;
2061;SDS011;11070;51.336;12.340;2024-03-02T10:31:30;23.20;;;16.80;;
2061;SDS011;11070;51.336;12.340;2024-03-02T10:33:56;21.55;;;16.02;;
2061;SDS011;11070;51.336;12.340;2024-03-02T10:36:23;17.02;;;14.32;;
2061;SDS011;11070;51.336;12.340;2024-03-02T10:38:50;21.23;;;14.65;;
2061;SDS011;11070;51.336;12.340;2024-03-02T10:41:24;14.53;;;12.10;;
2061;SDS011;11070;51.336;12.340;2024-03-02T10:43:55;14.83;;;11.37;;
2061;SDS011;11070;51.336;12.340;2024-03-02T10:46:27;14.37;;;11.50;;
2061;SDS011;11070;51.336;12.340;2024-03-02T10:48:54;13.23;;;11.27;;
2061;SDS011;11070;51.336;12.340;2024-03-02T10:51:24;12.70;;;10.73;;
2061;SDS011;11070;51.336;12.340;2024-03-02T10:53:50;13.27;;;11.03;;
2061;SDS011;11070;51.336;12.340;2024-03-02T10:56:21;13.70;;;11.87;;
2061;SDS011;11070;51.336;12.340;2024-03-02T10:58:51;13.60;;;10.77;;
2061;SDS011;11070;51.336;12.340;2024-03-02T11:01:25;13.80;;;11.20;;
2061;SDS011;11070;51.336;12.340;2024-03-02T11:03:52;13.03;;;11.63;;
2061;SDS011;11070;51.336;12.340;2024-03-02T11:06:19;13.57;;;11.13;;
2061;SDS011;11070;51.336;12.340;2024-03-02T11:08:47;11.70;;;10.50;;
2061;SDS011;11070;51.336;12.340;2024-03-02T11:11:19;12.10;;;10.70;;
2061;SDS011;11070;51.336;12.340;2024-03-02T11:13:51;12.13;;;10.20;;
2061;SDS011;11070;51.336;12.340;2024-03-02T11:16:33;14.00;;;11.17;;
2061;SDS011;11070;51.336;12.340;2024-03-02T11:19:13;13.20;;;11.53;;
2061;SDS011;11070;51.336;12.340;2024-03-02T11:21:40;13.37;;;11.53;;
2061;SDS011;11070;51.336;12.340;2024-03-02T11:26:48;13.23;;;10.47;;
2061;SDS011;11070;51.336;12.340;2024-03-02T11:32:21;13.10;;;10.80;;
2061;SDS011;11070;51.336;12.340;2024-03-02T11:34:51;11.90;;;10.53;;
2061;SDS011;11070;51.336;12.340;2024-03-02T11:37:20;12.57;;;11.27;;
2061;SDS011;11070;51.336;12.340;2024-03-02T11:39:46;13.37;;;11.50;;
2061;SDS011;11070;51.336;12.340;2024-03-02T11:42:15;13.00;;;10.93;;
2061;SDS011;11070;51.336;12.340;2024-03-02T11:44:45;12.03;;;10.10;;
2061;SDS011;11070;51.336;12.340;2024-03-02T11:47:14;11.23;;;10.13;;
2061;SDS011;11070;51.336;12.340;2024-03-02T11:52:07;13.47;;;10.30;;
2061;SDS011;11070;51.336;12.340;2024-03-02T11:54:40;11.50;;;9.77;;
2061;SDS011;11070;51.336;12.340;2024-03-02T11:57:15;12.30;;;10.37;;
2061;SDS011;11070;51.336;12.340;2024-03-02T11:59:42;12.23;;;10.90;;
2061;SDS011;11070;51.336;12.340;2024-03-02T12:02:20;12.97;;;11.70;;
2061;SDS011;11070;51.336;12.340;2024-03-02T12:04:49;12.13;;;10.83;;
2061;SDS011;11070;51.336;12.340;2024-03-02T12:07:22;12.50;;;11.10;;
2061;SDS011;11070;51.336;12.340;2024-03-02T12:09:58;12.20;;;10.80;;
2061;SDS011;11070;51.336;12.340;2024-03-02T12:12:26;11.67;;;10.47;;
2061;SDS011;11070;51.336;12.340;2024-03-02T12:14:52;12.17;;;9.87;;
2061;SDS011;11070;51.336;12.340;2024-03-02T12:17:21;12.50;;;10.63;;
2061;SDS011;11070;51.336;12.340;2024-03-02T12:19:48;11.30;;;9.90;;
2061;SDS011;11070;51.336;12.340;2024-03-02T12:22:14;12.97;;;10.10;;
2061;SDS011;11070;51.336;12.340;2024-03-02T12:24:41;10.53;;;9.53;;
2061;SDS011;11070;51.336;12.340;2024-03-02T12:27:06;10.03;;;9.03;;
2061;SDS011;11070;51.336;12.340;2024-03-02T12:29:32;7.70;;;6.90;;
2061;SDS011;11070;51.336;12.340;2024-03-02T12:31:59;8.83;;;7.40;;
2061;SDS011;11070;51.336;12.340;2024-03-02T12:34:27;8.30;;;7.00;;
2061;SDS011;11070;51.336;12.340;2024-03-02T12:36:53;8.07;;;7.27;;
2061;SDS011;11070;51.336;12.340;2024-03-02T12:39:19;7.33;;;6.73;;
2061;SDS011;11070;51.336;12.340;2024-03-02T12:41:46;8.93;;;8.03;;
2061;SDS011;11070;51.336;12.340;2024-03-02T12:44:12;8.60;;;7.80;;
2061;SDS011;11070;51.336;12.340;2024-03-02T12:46:37;8.07;;;7.27;;
2061;SDS011;11070;51.336;12.340;2024-03-02T12:49:10;8.77;;;7.90;;
2061;SDS011;11070;51.336;12.340;2024-03-02T12:51:37;9.67;;;8.50;;
2061;SDS011;11070;51.336;12.340;2024-03-02T12:54:07;9.50;;;8.50;;
2061;SDS011;11070;51.336;12.340;2024-03-02T12:56:40;10.10;;;8.90;;
2061;SDS011;11070;51.336;12.340;2024-03-02T12:59:21;8.60;;;7.43;;
2061;SDS011;11070;51.336;12.340;2024-03-02T13:01:52;9.63;;;8.20;;
2061;SDS011;11070;51.336;12.340;2024-03-02T13:04:26;8.90;;;7.70;;
2061;SDS011;11070;51.336;12.340;2024-03-02T13:06:53;7.90;;;7.20;;
2061;SDS011;11070;51.336;12.340;2024-03-02T13:09:21;7.90;;;7.10;;
2061;SDS011;11070;51.336;12.340;2024-03-02T13:11:47;8.33;;;7.60;;
2061;SDS011;11070;51.336;12.340;2024-03-02T13:14:13;9.63;;;8.70;;
2061;SDS011;11070;51.336;12.340;2024-03-02T13:16:39;9.03;;;8.20;;
2061;SDS011;11070;51.336;12.340;2024-03-02T13:19:11;10.30;;;9.30;;
2061;SDS011;11070;51.336;12.340;2024-03-02T13:21:37;9.17;;;8.27;;
2061;SDS011;11070;51.336;12.340;2024-03-02T13:24:03;7.90;;;7.00;;
2061;SDS011;11070;51.336;12.340;2024-03-02T13:26:30;7.40;;;6.70;;
2061;SDS011;11070;51.336;12.340;2024-03-02T13:28:55;7.03;;;6.33;;
2061;SDS011;11070;51.336;12.340;2024-03-02T13:31:21;11.90;;;7.40;;
2061;SDS011;11070;51.336;12.340;2024-03-02T13:33:47;7.70;;;6.40;;
2061;SDS011;11070;51.336;12.340;2024-03-02T13:36:13;7.47;;;6.77;;
2061;SDS011;11070;51.336;12.340;2024-03-02T13:38:39;7.60;;;6.90;;
2061;SDS011;11070;51.336;12.340;2024-03-02T13:41:04;7.73;;;6.97;;
2061;SDS011;11070;51.336;12.340;2024-03-02T13:43:30;6.30;;;5.70;;
2061;SDS011;11070;51.336;12.340;2024-03-02T13:45:57;8.60;;;7.23;;
2061;SDS011;11070;51.336;12.340;2024-03-02T13:48:24;8.37;;;7.57;;
2061;SDS011;11070;51.336;12.340;2024-03-02T13:50:52;11.57;;;8.10;;
2061;SDS011;11070;51.336;12.340;2024-03-02T13:53:18;7.10;;;6.40;;
2061;SDS011;11070;51.336;12.340;2024-03-02T13:55:44;7.57;;;6.90;;
2061;SDS011;11070;51.336;12.340;2024-03-02T13:58:10;8.60;;;7.47;;
2061;SDS011;11070;51.336;12.340;2024-03-02T14:00:37;8.53;;;7.73;;
2061;SDS011;11070;51.336;12.340;2024-03-02T14:03:04;8.00;;;7.20;;
2061;SDS011;11070;51.336;12.340;2024-03-02T14:05:33;8.87;;;8.07;;
2061;SDS011;11070;51.336;12.340;2024-03-02T14:07:59;8.30;;;7.57;;
2061;SDS011;11070;51.336;12.340;2024-03-02T14:10:25;7.87;;;7.17;;
2061;SDS011;11070;51.336;12.340;2024-03-02T14:12:52;10.97;;;7.03;;
2061;SDS011;11070;51.336;12.340;2024-03-02T14:15:20;7.73;;;7.00;;
2061;SDS011;11070;51.336;12.340;2024-03-02T14:17:49;7.03;;;6.33;;
2061;SDS011;11070;51.336;12.340;2024-03-02T14:20:15;7.97;;;6.90;;
2061;SDS011;11070;51.336;12.340;2024-03-02T14:22:46;8.80;;;7.40;;
2061;SDS011;11070;51.336;12.340;2024-03-02T14:25:12;7.87;;;7.17;;
2061;SDS011;11070;51.336;12.340;2024-03-02T14:27:38;6.30;;;5.80;;
2061;SDS011;11070;51.336;12.340;2024-03-02T14:30:05;7.17;;;6.07;;
2061;SDS011;11070;51.336;12.340;2024-03-02T14:32:31;8.70;;;7.80;;
2061;SDS011;11070;51.336;12.340;2024-03-02T14:34:57;7.03;;;6.27;;
2061;SDS011;11070;51.336;12.340;2024-03-02T14:37:23;6.57;;;5.90;;
2061;SDS011;11070;51.336;12.340;2024-03-02T14:39:48;6.70;;;6.10;;